Time;durP1;ratioP1;P1;durP2;ratioP2;P2;SDS_P1;SDS_P2;PMS_P1;PMS_P2;Temp;Humidity;BMP_temperature;BMP_pressure;BME280_temperature;BME280_humidity;BME280_pressure;Samples;Min_cycle;Max_cycle;Signal;HPM_P1;HPM_P2
2023/08/03 00:02:12;;;;;;;4.22;1.95;;;;;;;;;;5036396;28;20043;-80
2023/08/03 00:04:38;;;;;;;6.32;1.60;;;;;;;;;;5022976;28;20467;-81
2023/08/03 00:07:04;;;;;;;5.90;1.73;;;;;;;;;;5046251;28;20381;-81
2023/08/03 00:09:30;;;;;;;6.28;1.85;;;;;;;;;;5045215;28;20045;-81
2023/08/03 00:11:57;;;;;;;9.23;2.17;;;;;;;;;;5033327;28;20477;-80
2023/08/03 00:14:23;;;;;;;4.35;1.85;;;;;;;;;;5018610;28;20064;-82
2023/08/03 00:16:49;;;;;;;4.22;1.70;;;;;;;;;;5038539;28;20076;-82
2023/08/03 00:19:15;;;;;;;5.25;1.70;;;;;;;;;;5032908;28;20451;-81
2023/08/03 00:21:41;;;;;;;7.10;1.80;;;;;;;;;;5042592;28;20495;-82
2023/08/03 00:24:07;;;;;;;6.70;1.70;;;;;;;;;;5037103;28;20420;-82
2023/08/03 00:26:34;;;;;;;3.83;1.58;;;;;;;;;;5040316;28;20414;-79
2023/08/03 00:29:00;;;;;;;3.47;1.65;;;;;;;;;;5015702;28;20041;-78
2023/08/03 00:31:26;;;;;;;5.97;1.63;;;;;;;;;;5051775;28;20045;-79
2023/08/03 00:33:52;;;;;;;5.90;2.05;;;;;;;;;;5051896;28;20122;-79
2023/08/03 00:36:18;;;;;;;4.35;1.73;;;;;;;;;;5034679;28;20045;-79
2023/08/03 00:38:44;;;;;;;5.30;1.70;;;;;;;;;;5026046;28;20503;-80
2023/08/03 00:41:10;;;;;;;6.18;2.05;;;;;;;;;;5050302;28;20076;-80
2023/08/03 00:43:37;;;;;;;4.00;1.70;;;;;;;;;;5023938;28;20131;-80
2023/08/03 00:46:03;;;;;;;4.10;1.80;;;;;;;;;;5037969;28;20064;-80
2023/08/03 00:48:29;;;;;;;3.45;1.60;;;;;;;;;;5032437;28;20105;-79
2023/08/03 00:50:55;;;;;;;5.32;1.85;;;;;;;;;;5043062;28;20087;-80
2023/08/03 00:53:21;;;;;;;7.53;2.15;;;;;;;;;;5048622;28;20427;-79
2023/08/03 00:55:47;;;;;;;3.75;1.90;;;;;;;;;;5015623;28;20041;-80
2023/08/03 00:58:13;;;;;;;3.95;1.85;;;;;;;;;;5031344;28;20053;-81
2023/08/03 01:00:39;;;;;;;5.88;2.03;;;;;;;;;;5023076;28;20037;-82
2023/08/03 01:03:06;;;;;;;4.00;1.95;;;;;;;;;;5035069;28;20138;-82
2023/08/03 01:05:35;;;;;;;8.15;2.15;;;;;;;;;;5035291;28;20069;-82
2023/08/03 01:08:01;;;;;;;6.75;2.33;;;;;;;;;;5034453;28;20079;-81
2023/08/03 01:10:28;;;;;;;6.95;2.20;;;;;;;;;;5051431;28;20094;-80
2023/08/03 01:12:56;;;;;;;3.70;2.08;;;;;;;;;;5051678;28;20072;-82
2023/08/03 01:15:22;;;;;;;4.38;2.33;;;;;;;;;;5049079;28;20033;-81
2023/08/03 01:17:48;;;;;;;3.58;2.28;;;;;;;;;;5014494;28;20049;-81
2023/08/03 01:20:15;;;;;;;3.70;2.10;;;;;;;;;;5014958;28;20171;-82
2023/08/03 01:22:42;;;;;;;5.13;2.05;;;;;;;;;;5021307;28;20037;-82
2023/08/03 01:25:09;;;;;;;5.57;2.15;;;;;;;;;;5051874;28;20063;-81
2023/08/03 01:27:35;;;;;;;5.20;2.17;;;;;;;;;;5047385;28;20466;-81
2023/08/03 01:30:01;;;;;;;3.95;2.22;;;;;;;;;;5031437;28;20045;-81
2023/08/03 01:32:27;;;;;;;6.15;2.42;;;;;;;;;;5047896;28;20075;-81
2023/08/03 01:34:53;;;;;;;5.97;2.72;;;;;;;;;;5043255;28;20116;-82
2023/08/03 01:37:19;;;;;;;4.03;2.42;;;;;;;;;;5045238;28;20063;-81
2023/08/03 01:39:45;;;;;;;5.43;2.60;;;;;;;;;;5038124;28;20052;-82
2023/08/03 01:42:12;;;;;;;6.32;2.60;;;;;;;;;;5021903;28;20045;-83
2023/08/03 01:44:38;;;;;;;4.53;2.60;;;;;;;;;;5031303;28;20041;-82
2023/08/03 01:47:05;;;;;;;4.22;2.67;;;;;;;;;;5041723;28;20037;-83
2023/08/03 01:49:31;;;;;;;6.82;3.20;;;;;;;;;;5048182;28;20052;-82
2023/08/03 01:51:58;;;;;;;5.30;3.10;;;;;;;;;;5039793;28;20082;-83
2023/08/03 01:54:24;;;;;;;7.82;3.30;;;;;;;;;;5037882;28;20501;-82
2023/08/03 01:56:50;;;;;;;7.57;3.28;;;;;;;;;;5037883;28;20411;-81
2023/08/03 01:59:16;;;;;;;5.97;3.30;;;;;;;;;;5021041;28;20419;-83
2023/08/03 02:01:42;;;;;;;6.90;3.47;;;;;;;;;;5023949;28;20506;-83
2023/08/03 02:04:08;;;;;;;9.15;3.95;;;;;;;;;;5031778;28;20128;-83
2023/08/03 02:06:36;;;;;;;7.00;4.00;;;;;;;;;;5033110;28;20029;-83
2023/08/03 02:09:03;;;;;;;5.25;3.58;;;;;;;;;;5034060;28;20407;-83
2023/08/03 02:11:29;;;;;;;6.72;3.55;;;;;;;;;;5033714;28;20033;-82
2023/08/03 02:13:55;;;;;;;6.25;3.60;;;;;;;;;;5030465;28;20041;-80
2023/08/03 02:16:21;;;;;;;7.60;3.53;;;;;;;;;;5006891;28;20045;-79
2023/08/03 02:18:47;;;;;;;7.68;3.65;;;;;;;;;;5013703;28;20389;-79
2023/08/03 02:21:13;;;;;;;7.60;4.38;;;;;;;;;;5026081;28;20488;-80
2023/08/03 02:23:39;;;;;;;8.07;4.25;;;;;;;;;;5011700;28;20041;-80
2023/08/03 02:26:05;;;;;;;11.15;4.57;;;;;;;;;;5011524;28;20079;-80
2023/08/03 02:28:32;;;;;;;9.25;4.78;;;;;;;;;;5013868;28;20064;-80
2023/08/03 02:30:58;;;;;;;10.07;4.93;;;;;;;;;;5019696;28;20487;-80
2023/08/03 02:33:24;;;;;;;11.68;5.35;;;;;;;;;;5020734;28;20048;-79
2023/08/03 02:35:50;;;;;;;13.40;4.88;;;;;;;;;;5005251;28;20041;-79
2023/08/03 02:38:18;;;;;;;10.05;4.95;;;;;;;;;;5001342;28;20060;-78
2023/08/03 02:40:44;;;;;;;13.10;5.07;;;;;;;;;;5020853;28;20380;-79
2023/08/03 02:43:10;;;;;;;12.18;5.20;;;;;;;;;;5007703;28;20067;-78
2023/08/03 02:45:36;;;;;;;10.70;5.63;;;;;;;;;;5022061;28;20051;-81
2023/08/03 02:48:02;;;;;;;15.75;5.63;;;;;;;;;;5019093;28;20512;-83
2023/08/03 02:50:28;;;;;;;12.85;5.35;;;;;;;;;;5001797;28;20076;-82
2023/08/03 02:52:54;;;;;;;12.95;5.10;;;;;;;;;;5015678;28;20033;-79
2023/08/03 02:55:20;;;;;;;13.00;4.88;;;;;;;;;;5020156;28;20492;-82
2023/08/03 02:57:46;;;;;;;16.20;4.95;;;;;;;;;;5023568;28;20103;-79
2023/08/03 03:00:12;;;;;;;14.40;5.15;;;;;;;;;;5024595;28;20127;-79
2023/08/03 03:02:38;;;;;;;17.17;5.30;;;;;;;;;;5054424;28;20566;-82
2023/08/03 03:05:05;;;;;;;16.10;5.18;;;;;;;;;;5036418;28;20033;-81
2023/08/03 03:07:31;;;;;;;12.55;4.80;;;;;;;;;;5033739;28;20125;-79
2023/08/03 03:09:57;;;;;;;17.75;4.80;;;;;;;;;;5017247;28;20044;-79
2023/08/03 03:12:24;;;;;;;19.05;4.95;;;;;;;;;;5043162;28;20048;-79
2023/08/03 03:14:50;;;;;;;16.15;4.63;;;;;;;;;;5052647;28;20060;-79
2023/08/03 03:17:16;;;;;;;15.00;4.55;;;;;;;;;;5024625;28;20517;-79
2023/08/03 03:19:42;;;;;;;16.08;4.57;;;;;;;;;;5044153;28;20119;-79
2023/08/03 03:22:08;;;;;;;17.35;4.65;;;;;;;;;;5021905;28;20045;-82
2023/08/03 03:24:34;;;;;;;19.17;4.47;;;;;;;;;;5040770;28;20072;-82
2023/08/03 03:27:01;;;;;;;13.35;4.18;;;;;;;;;;5053555;28;20044;-82
2023/08/03 03:29:27;;;;;;;16.10;4.90;;;;;;;;;;5039036;28;20059;-80
2023/08/03 03:31:53;;;;;;;15.85;4.32;;;;;;;;;;5036943;28;20075;-81
2023/08/03 03:34:19;;;;;;;17.25;4.30;;;;;;;;;;5036155;28;20037;-80
2023/08/03 03:36:45;;;;;;;15.32;4.22;;;;;;;;;;5053679;28;20558;-81
2023/08/03 03:39:11;;;;;;;16.63;3.92;;;;;;;;;;5051497;28;20051;-81
2023/08/03 03:41:37;;;;;;;20.45;3.83;;;;;;;;;;5040141;28;20044;-79
2023/08/03 03:44:03;;;;;;;17.58;4.00;;;;;;;;;;5053106;28;20044;-78
2023/08/03 03:46:29;;;;;;;18.60;4.57;;;;;;;;;;5052659;28;20052;-79
2023/08/03 03:48:55;;;;;;;17.33;3.28;;;;;;;;;;5053269;28;20504;-77
2023/08/03 03:51:21;;;;;;;13.98;3.60;;;;;;;;;;5035970;28;20037;-81
2023/08/03 03:53:47;;;;;;;24.58;3.75;;;;;;;;;;5020872;28;20487;-82
2023/08/03 03:56:14;;;;;;;18.52;3.10;;;;;;;;;;5035278;28;20484;-82
2023/08/03 03:58:40;;;;;;;12.95;2.97;;;;;;;;;;5041525;28;20044;-82
2023/08/03 04:01:06;;;;;;;14.25;3.30;;;;;;;;;;5048961;28;20214;-82
2023/08/03 04:03:32;;;;;;;20.77;3.80;;;;;;;;;;5035749;28;20032;-81
2023/08/03 04:05:58;;;;;;;17.27;3.33;;;;;;;;;;5027680;28;20041;-81
2023/08/03 04:08:24;;;;;;;14.55;3.20;;;;;;;;;;5043233;28;20041;-81
2023/08/03 04:10:50;;;;;;;14.00;3.00;;;;;;;;;;5052474;28;20045;-78
2023/08/03 04:13:16;;;;;;;16.42;3.60;;;;;;;;;;5025491;28;20546;-78
2023/08/03 04:15:42;;;;;;;14.90;3.15;;;;;;;;;;5044541;28;20523;-81
2023/08/03 04:18:08;;;;;;;15.02;2.97;;;;;;;;;;5031281;28;20080;-82
2023/08/03 04:20:34;;;;;;;19.95;3.50;;;;;;;;;;5021522;28;20038;-81
2023/08/03 04:23:00;;;;;;;19.10;2.90;;;;;;;;;;5034080;28;20514;-81
2023/08/03 04:25:26;;;;;;;21.92;3.60;;;;;;;;;;5033010;28;20053;-81
2023/08/03 04:27:52;;;;;;;12.18;3.00;;;;;;;;;;5016669;28;20037;-81
2023/08/03 04:30:19;;;;;;;15.20;3.30;;;;;;;;;;5033517;28;20038;-82
2023/08/03 04:32:45;;;;;;;21.48;3.60;;;;;;;;;;5034501;28;20033;-79
2023/08/03 04:35:11;;;;;;;12.27;3.00;;;;;;;;;;5036327;28;20131;-80
2023/08/03 04:37:37;;;;;;;18.63;3.42;;;;;;;;;;5049330;28;20540;-78
2023/08/03 04:40:04;;;;;;;16.38;3.58;;;;;;;;;;5040863;28;20051;-78
2023/08/03 04:42:30;;;;;;;15.20;3.38;;;;;;;;;;5033974;28;20040;-78
2023/08/03 04:44:56;;;;;;;16.20;3.63;;;;;;;;;;5039082;28;20106;-78
2023/08/03 04:47:22;;;;;;;12.73;2.92;;;;;;;;;;5024162;28;20045;-80
2023/08/03 04:49:48;;;;;;;14.40;2.80;;;;;;;;;;5038764;28;20033;-81
2023/08/03 04:52:15;;;;;;;12.27;2.75;;;;;;;;;;5042170;28;20041;-81
2023/08/03 04:54:41;;;;;;;7.40;2.50;;;;;;;;;;5032369;28;20488;-78
2023/08/03 04:57:07;;;;;;;7.28;1.95;;;;;;;;;;5041251;28;20384;-78
2023/08/03 04:59:33;;;;;;;11.48;2.28;;;;;;;;;;5049902;28;20064;-78
2023/08/03 05:01:59;;;;;;;10.57;2.30;;;;;;;;;;5035804;28;20049;-81
2023/08/03 05:04:25;;;;;;;9.43;2.13;;;;;;;;;;5031888;28;20543;-78
2023/08/03 05:06:52;;;;;;;9.23;2.10;;;;;;;;;;5045984;28;20407;-81
2023/08/03 05:09:18;;;;;;;6.75;1.90;;;;;;;;;;5039750;28;20107;-78
2023/08/03 05:11:44;;;;;;;8.57;2.25;;;;;;;;;;5031341;28;20484;-77
2023/08/03 05:14:10;;;;;;;8.52;1.90;;;;;;;;;;5032661;28;20037;-80
2023/08/03 05:16:36;;;;;;;9.70;2.20;;;;;;;;;;5032649;28;20537;-78
2023/08/03 05:19:02;;;;;;;8.23;1.92;;;;;;;;;;5039468;28;20052;-81
2023/08/03 05:21:28;;;;;;;9.45;2.00;;;;;;;;;;5051687;28;20494;-77
2023/08/03 05:23:54;;;;;;;6.30;1.80;;;;;;;;;;5016285;28;20410;-78
2023/08/03 05:26:20;;;;;;;5.07;1.85;;;;;;;;;;5040206;28;20100;-81
2023/08/03 05:28:46;;;;;;;5.72;1.95;;;;;;;;;;5050967;28;20114;-78
2023/08/03 05:31:13;;;;;;;6.78;1.58;;;;;;;;;;5037822;28;20376;-78
2023/08/03 05:33:39;;;;;;;11.63;2.28;;;;;;;;;;5051844;28;20447;-78
2023/08/03 05:36:05;;;;;;;8.90;2.50;;;;;;;;;;5051253;28;20037;-78
2023/08/03 05:38:31;;;;;;;8.60;2.10;;;;;;;;;;5041835;28;20484;-78
2023/08/03 05:40:57;;;;;;;6.43;1.92;;;;;;;;;;5029218;28;20042;-79
2023/08/03 05:43:24;;;;;;;8.25;2.10;;;;;;;;;;5023514;28;20070;-78
2023/08/03 05:45:54;;;;;;;7.57;2.40;;;;;;;;;;5049961;28;20045;-74
2023/08/03 05:48:20;;;;;;;6.80;1.90;;;;;;;;;;5031021;28;20120;-78
2023/08/03 05:50:52;;;;;;;12.00;2.97;;;;;;;;;;5030976;28;20049;-79
2023/08/03 05:53:19;;;;;;;5.45;1.63;;;;;;;;;;5031560;28;20037;-76
2023/08/03 05:55:45;;;;;;;8.32;1.90;;;;;;;;;;5044806;28;20044;-78
2023/08/03 05:58:15;;;;;;;9.07;1.95;;;;;;;;;;5050790;28;20127;-79
2023/08/03 06:00:42;;;;;;;5.20;1.70;;;;;;;;;;5050738;28;20503;-75
2023/08/03 06:03:13;;;;;;;5.97;2.03;;;;;;;;;;5047707;28;20377;-79
2023/08/03 06:05:39;;;;;;;9.40;1.70;;;;;;;;;;5023118;28;20124;-79
2023/08/03 06:08:15;;;;;;;5.85;1.80;;;;;;;;;;5033939;28;20048;-77
2023/08/03 06:10:42;;;;;;;6.18;1.40;;;;;;;;;;5041409;28;20103;-78
2023/08/03 06:13:10;;;;;;;6.45;1.60;;;;;;;;;;5031954;28;20534;-75
2023/08/03 06:15:36;;;;;;;5.95;1.42;;;;;;;;;;5038187;28;20102;-75
2023/08/03 06:18:05;;;;;;;6.70;1.40;;;;;;;;;;5034272;28;20037;-77
2023/08/03 06:20:31;;;;;;;6.72;1.60;;;;;;;;;;5034530;28;20038;-78
2023/08/03 06:22:57;;;;;;;7.18;1.48;;;;;;;;;;5038652;28;20424;-77
2023/08/03 06:25:23;;;;;;;6.28;1.65;;;;;;;;;;5017590;28;20075;-77
2023/08/03 06:27:50;;;;;;;6.43;1.48;;;;;;;;;;5013856;28;20077;-75
2023/08/03 06:30:17;;;;;;;7.00;1.40;;;;;;;;;;5030478;28;20049;-78
2023/08/03 06:32:43;;;;;;;6.00;1.40;;;;;;;;;;5048883;28;20033;-77
2023/08/03 06:35:42;;;;;;;8.45;1.45;;;;;;;;;;5050772;28;20491;-74
2023/08/03 06:38:12;;;;;;;7.80;1.45;;;;;;;;;;5000212;28;20045;-77
2023/08/03 06:40:40;;;;;;;8.52;1.70;;;;;;;;;;5043744;28;20072;-74
2023/08/03 06:43:06;;;;;;;6.78;1.35;;;;;;;;;;5044580;28;20443;-77
2023/08/03 06:45:33;;;;;;;7.82;1.50;;;;;;;;;;5026211;28;20064;-76
2023/08/03 06:48:00;;;;;;;5.13;1.50;;;;;;;;;;5035810;28;20044;-81
2023/08/03 06:50:26;;;;;;;6.63;1.40;;;;;;;;;;5034126;28;20048;-77
2023/08/03 06:52:53;;;;;;;6.25;1.30;;;;;;;;;;5047238;28;20388;-74
2023/08/03 06:55:19;;;;;;;8.55;1.60;;;;;;;;;;5032733;28;20064;-74
2023/08/03 06:57:46;;;;;;;9.00;1.50;;;;;;;;;;5024747;28;20496;-78
2023/08/03 07:00:13;;;;;;;6.15;1.63;;;;;;;;;;5037276;28;20143;-78
2023/08/03 07:02:39;;;;;;;5.82;1.10;;;;;;;;;;5050046;28;20049;-78
2023/08/03 07:05:05;;;;;;;11.55;1.92;;;;;;;;;;5033284;28;20062;-77
2023/08/03 07:07:31;;;;;;;6.68;1.30;;;;;;;;;;5050201;28;20068;-77
2023/08/03 07:09:59;;;;;;;6.35;1.05;;;;;;;;;;5046678;28;20129;-76
2023/08/03 07:12:25;;;;;;;6.68;1.25;;;;;;;;;;5030053;28;20050;-75
2023/08/03 07:14:52;;;;;;;4.97;1.40;;;;;;;;;;5043940;28;20069;-75
2023/08/03 07:17:18;;;;;;;8.68;1.52;;;;;;;;;;5023855;28;20072;-75
2023/08/03 07:19:44;;;;;;;5.45;1.13;;;;;;;;;;5043894;28;20381;-75
2023/08/03 07:22:10;;;;;;;4.93;0.90;;;;;;;;;;5035323;28;20046;-75
2023/08/03 07:24:36;;;;;;;8.13;1.30;;;;;;;;;;5046989;28;20092;-76
2023/08/03 07:27:03;;;;;;;6.57;1.17;;;;;;;;;;5030652;28;20048;-76
2023/08/03 07:29:29;;;;;;;4.00;1.10;;;;;;;;;;5039806;28;20044;-76
2023/08/03 07:31:56;;;;;;;4.18;1.02;;;;;;;;;;5053455;28;20506;-75
2023/08/03 07:34:22;;;;;;;6.50;1.25;;;;;;;;;;5022998;28;20029;-77
2023/08/03 07:36:52;;;;;;;4.95;1.02;;;;;;;;;;5042969;28;20090;-79
2023/08/03 07:39:18;;;;;;;3.72;0.95;;;;;;;;;;5033658;28;20175;-76
2023/08/03 07:41:44;;;;;;;3.92;1.08;;;;;;;;;;5042487;28;20568;-76
2023/08/03 07:44:10;;;;;;;3.05;0.70;;;;;;;;;;5038418;28;20045;-79
2023/08/03 07:46:36;;;;;;;3.65;1.00;;;;;;;;;;5033513;28;20045;-81
2023/08/03 07:49:02;;;;;;;5.35;1.23;;;;;;;;;;5033779;28;20046;-76
2023/08/03 07:51:29;;;;;;;5.97;1.50;;;;;;;;;;5022042;28;20041;-76
2023/08/03 07:53:55;;;;;;;6.03;1.15;;;;;;;;;;5041661;28;20102;-76
2023/08/03 07:56:23;;;;;;;8.27;1.88;;;;;;;;;;5035548;28;20395;-79
2023/08/03 07:58:50;;;;;;;4.80;1.50;;;;;;;;;;5042036;28;20051;-76
2023/08/03 08:01:16;;;;;;;8.43;1.52;;;;;;;;;;5034936;28;20048;-76
2023/08/03 08:03:42;;;;;;;5.53;1.30;;;;;;;;;;5033232;28;20029;-75
2023/08/03 08:06:09;;;;;;;4.75;1.10;;;;;;;;;;5033077;28;20434;-77
2023/08/03 08:08:36;;;;;;;4.95;1.10;;;;;;;;;;5047415;28;20390;-80
2023/08/03 08:11:03;;;;;;;2.67;0.85;;;;;;;;;;5012205;28;20045;-82
2023/08/03 08:13:29;;;;;;;3.13;1.13;;;;;;;;;;5053042;28;20029;-79
2023/08/03 08:16:02;;;;;;;3.42;1.02;;;;;;;;;;5052880;28;20032;-80
2023/08/03 08:18:28;;;;;;;3.28;0.95;;;;;;;;;;5049569;28;20069;-83
2023/08/03 08:20:55;;;;;;;4.13;1.08;;;;;;;;;;5030164;28;20072;-79
2023/08/03 08:23:21;;;;;;;3.90;1.00;;;;;;;;;;5033177;28;20507;-79
2023/08/03 08:25:47;;;;;;;4.05;1.08;;;;;;;;;;5036495;28;20536;-78
2023/08/03 08:28:14;;;;;;;4.63;0.90;;;;;;;;;;5052095;28;20045;-80
2023/08/03 08:30:40;;;;;;;3.97;1.00;;;;;;;;;;5050842;28;20048;-79
2023/08/03 08:33:06;;;;;;;4.38;1.25;;;;;;;;;;5023584;28;20052;-81
2023/08/03 08:35:32;;;;;;;3.83;0.88;;;;;;;;;;5052584;28;20041;-79
2023/08/03 08:38:00;;;;;;;5.15;0.90;;;;;;;;;;5032288;28;20088;-78
2023/08/03 08:40:29;;;;;;;3.35;0.90;;;;;;;;;;5032754;28;20248;-84
2023/08/03 08:42:56;;;;;;;3.97;0.95;;;;;;;;;;5046184;28;20053;-81
2023/08/03 08:45:22;;;;;;;4.93;0.70;;;;;;;;;;5043310;28;20450;-80
2023/08/03 08:47:48;;;;;;;3.35;0.60;;;;;;;;;;5049406;28;20041;-76
2023/08/03 08:50:15;;;;;;;3.28;0.95;;;;;;;;;;5040787;28;20049;-77
2023/08/03 08:52:44;;;;;;;2.90;1.00;;;;;;;;;;5051430;28;20124;-76
2023/08/03 08:55:14;;;;;;;4.85;0.90;;;;;;;;;;5032749;28;20068;-76
2023/08/03 08:57:40;;;;;;;4.13;1.10;;;;;;;;;;5012800;28;20056;-78
2023/08/03 09:00:06;;;;;;;5.15;0.95;;;;;;;;;;5035180;28;20427;-78
2023/08/03 09:02:33;;;;;;;4.60;1.15;;;;;;;;;;5028249;28;20456;-78
2023/08/03 09:05:15;;;;;;;5.07;1.05;;;;;;;;;;5031261;28;20037;-79
2023/08/03 09:07:42;;;;;;;6.68;1.20;;;;;;;;;;5032112;28;20156;-79
2023/08/03 09:10:09;;;;;;;7.93;1.30;;;;;;;;;;5029515;28;20048;-77
2023/08/03 09:12:37;;;;;;;5.20;1.10;;;;;;;;;;5035445;28;20037;-81
2023/08/03 09:15:04;;;;;;;4.00;1.10;;;;;;;;;;5038066;28;20076;-78
2023/08/03 09:17:30;;;;;;;5.95;1.35;;;;;;;;;;5026547;28;20052;-79
2023/08/03 09:19:56;;;;;;;5.10;1.40;;;;;;;;;;5031992;28;20049;-77
2023/08/03 09:22:23;;;;;;;7.88;1.40;;;;;;;;;;5031568;28;20042;-80
2023/08/03 09:25:05;;;;;;;5.88;1.13;;;;;;;;;;5041327;28;20041;-79
2023/08/03 09:27:31;;;;;;;7.95;1.60;;;;;;;;;;5048028;28;20041;-80
2023/08/03 09:30:04;;;;;;;6.57;1.30;;;;;;;;;;5042082;28;20033;-79
2023/08/03 09:32:34;;;;;;;4.93;1.40;;;;;;;;;;5021933;28;20053;-79
2023/08/03 09:35:01;;;;;;;5.70;1.35;;;;;;;;;;5025085;28;20103;-82
2023/08/03 09:37:34;;;;;;;5.65;1.27;;;;;;;;;;5031304;28;20041;-79
2023/08/03 09:40:04;;;;;;;5.57;1.20;;;;;;;;;;5030915;28;20088;-77
2023/08/03 09:42:33;;;;;;;6.78;1.65;;;;;;;;;;5020177;28;20041;-79
2023/08/03 09:45:03;;;;;;;6.60;1.40;;;;;;;;;;5022906;28;20483;-81
2023/08/03 09:47:30;;;;;;;5.30;1.40;;;;;;;;;;5051283;28;20465;-78
2023/08/03 09:49:56;;;;;;;5.53;1.23;;;;;;;;;;5037499;28;20081;-78
2023/08/03 09:52:25;;;;;;;5.18;1.40;;;;;;;;;;5051030;28;20052;-77
2023/08/03 09:55:12;;;;;;;5.82;1.30;;;;;;;;;;5022760;28;20068;-77
2023/08/03 09:57:43;;;;;;;4.75;1.23;;;;;;;;;;5035228;28;20057;-78
2023/08/03 10:00:12;;;;;;;3.92;1.02;;;;;;;;;;5054666;28;20178;-77
2023/08/03 10:02:41;;;;;;;4.50;1.40;;;;;;;;;;5038918;28;20044;-79
2023/08/03 10:05:08;;;;;;;7.22;1.55;;;;;;;;;;5014922;28;20557;-78
2023/08/03 10:07:39;;;;;;;3.20;1.00;;;;;;;;;;5031645;28;20045;-78
2023/08/03 10:10:05;;;;;;;4.40;1.13;;;;;;;;;;5049789;28;20565;-79
2023/08/03 10:12:35;;;;;;;5.55;1.33;;;;;;;;;;5040805;28;20037;-80
2023/08/03 10:15:02;;;;;;;6.25;1.30;;;;;;;;;;5032481;28;20439;-80
2023/08/03 10:17:29;;;;;;;3.83;1.20;;;;;;;;;;5030996;28;20376;-77
2023/08/03 10:19:55;;;;;;;3.88;1.20;;;;;;;;;;5042242;28;20076;-76
2023/08/03 10:22:21;;;;;;;4.05;0.85;;;;;;;;;;5034076;28;20037;-80
2023/08/03 10:25:06;;;;;;;6.18;1.00;;;;;;;;;;5008087;28;20491;-76
2023/08/03 10:27:32;;;;;;;2.90;0.82;;;;;;;;;;5034844;28;20037;-80
2023/08/03 10:29:59;;;;;;;3.70;0.85;;;;;;;;;;5041316;28;20041;-78
2023/08/03 10:32:27;;;;;;;4.03;1.00;;;;;;;;;;5030795;28;20404;-80
2023/08/03 10:34:58;;;;;;;5.32;1.00;;;;;;;;;;5031965;28;20045;-80
2023/08/03 10:37:24;;;;;;;4.28;1.00;;;;;;;;;;5031319;28;20503;-79
2023/08/03 10:39:59;;;;;;;6.93;1.08;;;;;;;;;;5038732;28;20033;-78
2023/08/03 10:42:28;;;;;;;6.20;1.38;;;;;;;;;;5031884;28;20045;-78
2023/08/03 10:44:55;;;;;;;7.88;1.25;;;;;;;;;;5038479;28;20482;-78
2023/08/03 10:47:23;;;;;;;4.00;1.10;;;;;;;;;;5051040;28;20041;-78
2023/08/03 10:49:49;;;;;;;6.20;1.30;;;;;;;;;;5031311;28;20038;-78
2023/08/03 10:52:20;;;;;;;4.10;1.52;;;;;;;;;;5045344;28;20041;-78
2023/08/03 10:54:46;;;;;;;4.63;1.20;;;;;;;;;;5036729;28;20226;-81
2023/08/03 10:57:12;;;;;;;5.53;1.20;;;;;;;;;;5034358;28;20388;-77
2023/08/03 10:59:39;;;;;;;6.63;1.40;;;;;;;;;;5048015;28;20053;-78
2023/08/03 11:02:44;;;;;;;9.25;1.88;;;;;;;;;;5018506;28;20080;-79
2023/08/03 11:05:13;;;;;;;8.23;1.83;;;;;;;;;;4973765;28;20077;-78
2023/08/03 11:07:40;;;;;;;9.90;1.90;;;;;;;;;;4966558;28;20043;-79
2023/08/03 11:10:09;;;;;;;11.00;1.75;;;;;;;;;;5012820;28;20053;-78
2023/08/03 11:12:35;;;;;;;7.28;1.48;;;;;;;;;;5026467;28;20044;-79
2023/08/03 11:15:02;;;;;;;7.90;1.98;;;;;;;;;;5036926;28;20056;-77
2023/08/03 11:17:36;;;;;;;5.63;1.58;;;;;;;;;;5053663;28;20083;-79
2023/08/03 11:20:03;;;;;;;9.65;2.13;;;;;;;;;;5038116;28;20049;-78
2023/08/03 11:22:30;;;;;;;6.20;1.80;;;;;;;;;;5035133;28;20095;-78
2023/08/03 11:24:57;;;;;;;9.43;3.47;;;;;;;;;;5044042;28;20052;-79
2023/08/03 11:27:23;;;;;;;7.18;1.63;;;;;;;;;;5037579;28;20037;-80
2023/08/03 11:29:51;;;;;;;8.00;1.60;;;;;;;;;;5037460;28;20045;-79
2023/08/03 11:32:24;;;;;;;6.72;1.63;;;;;;;;;;5038140;28;20516;-79
2023/08/03 11:34:57;;;;;;;7.25;1.75;;;;;;;;;;5033614;28;20052;-78
2023/08/03 11:37:23;;;;;;;8.02;1.63;;;;;;;;;;5030641;28;20044;-81
2023/08/03 11:39:49;;;;;;;9.63;1.80;;;;;;;;;;5040674;28;20040;-78
2023/08/03 11:42:15;;;;;;;6.60;1.70;;;;;;;;;;5037250;28;20499;-80
2023/08/03 11:44:45;;;;;;;4.35;1.20;;;;;;;;;;5036940;28;20068;-79
2023/08/03 11:47:11;;;;;;;6.25;1.20;;;;;;;;;;5042254;28;20443;-83
2023/08/03 11:49:37;;;;;;;4.65;0.90;;;;;;;;;;5033602;28;20211;-80
2023/08/03 11:52:03;;;;;;;4.40;1.13;;;;;;;;;;5043737;28;20045;-82
2023/08/03 11:54:31;;;;;;;5.05;1.13;;;;;;;;;;5049394;28;20038;-79
2023/08/03 11:59:43;;;;;;;;;;;;;;;;;;5031638;28;20064;-79
2023/08/03 12:02:09;;;;;;;5.03;0.90;;;;;;;;;;5032955;28;19917;-80
2023/08/03 12:04:35;;;;;;;6.28;1.00;;;;;;;;;;5016666;28;20053;-80
2023/08/03 12:07:01;;;;;;;3.92;1.10;;;;;;;;;;5000357;28;20041;-79
2023/08/03 12:09:28;;;;;;;5.85;1.50;;;;;;;;;;5012927;28;20037;-80
2023/08/03 12:12:04;;;;;;;5.78;1.80;;;;;;;;;;5020653;28;20051;-79
2023/08/03 12:14:30;;;;;;;6.07;1.30;;;;;;;;;;5023553;28;20037;-80
2023/08/03 12:16:57;;;;;;;5.75;1.30;;;;;;;;;;5019282;28;20534;-81
2023/08/03 12:19:23;;;;;;;4.35;1.40;;;;;;;;;;5032005;28;20114;-81
2023/08/03 12:21:49;;;;;;;9.10;1.50;;;;;;;;;;5023847;28;20088;-81
2023/08/03 12:24:15;;;;;;;10.05;1.92;;;;;;;;;;5018700;28;20036;-84
2023/08/03 12:26:41;;;;;;;4.65;1.50;;;;;;;;;;5008206;28;20072;-81
2023/08/03 12:29:07;;;;;;;5.88;1.33;;;;;;;;;;5013374;28;20045;-76
2023/08/03 12:31:33;;;;;;;5.70;1.67;;;;;;;;;;5016085;28;20119;-79
2023/08/03 12:34:00;;;;;;;6.65;1.70;;;;;;;;;;5016177;28;20048;-77
2023/08/03 12:36:26;;;;;;;6.35;1.60;;;;;;;;;;5016042;28;20187;-77
2023/08/03 12:38:53;;;;;;;4.72;1.42;;;;;;;;;;5016266;28;20045;-80
2023/08/03 12:41:19;;;;;;;6.75;1.75;;;;;;;;;;4999767;28;20049;-80
2023/08/03 12:43:49;;;;;;;7.18;1.55;;;;;;;;;;5027107;28;20098;-79
2023/08/03 12:46:16;;;;;;;4.63;1.30;;;;;;;;;;5017730;28;20041;-80
2023/08/03 12:48:42;;;;;;;3.42;1.25;;;;;;;;;;5016020;28;20045;-80
2023/08/03 12:51:09;;;;;;;6.00;1.80;;;;;;;;;;5013436;28;20521;-79
2023/08/03 12:53:35;;;;;;;5.78;1.42;;;;;;;;;;4999898;28;20504;-80
2023/08/03 12:56:01;;;;;;;6.30;1.45;;;;;;;;;;5001564;28;20049;-80
2023/08/03 12:58:27;;;;;;;9.38;1.70;;;;;;;;;;5010189;28;20057;-79
2023/08/03 13:00:55;;;;;;;8.98;1.90;;;;;;;;;;5032584;28;20451;-78
2023/08/03 13:03:22;;;;;;;5.60;1.85;;;;;;;;;;5034723;28;20044;-82
2023/08/03 13:05:48;;;;;;;7.18;1.92;;;;;;;;;;5051487;28;20051;-79
2023/08/03 13:08:16;;;;;;;8.20;2.10;;;;;;;;;;5018508;28;20038;-79
2023/08/03 13:10:44;;;;;;;9.05;2.63;;;;;;;;;;5015434;28;20049;-77
2023/08/03 13:13:10;;;;;;;10.32;2.50;;;;;;;;;;5016839;28;20550;-79
2023/08/03 13:15:36;;;;;;;12.32;2.95;;;;;;;;;;5051327;28;20037;-78
2023/08/03 13:18:02;;;;;;;7.55;2.35;;;;;;;;;;5037956;28;20045;-79
2023/08/03 13:20:28;;;;;;;15.32;2.75;;;;;;;;;;5049212;28;20072;-81
2023/08/03 13:22:54;;;;;;;12.75;2.90;;;;;;;;;;5039598;28;20503;-78
2023/08/03 13:25:20;;;;;;;9.55;2.75;;;;;;;;;;5051423;28;20079;-79
2023/08/03 13:27:46;;;;;;;16.13;3.15;;;;;;;;;;5034218;28;20036;-80
2023/08/03 13:30:14;;;;;;;11.20;2.55;;;;;;;;;;5039700;28;20042;-83
2023/08/03 13:32:44;;;;;;;11.18;2.88;;;;;;;;;;5032832;28;20043;-78
2023/08/03 13:35:10;;;;;;;10.40;2.55;;;;;;;;;;5051340;28;20049;-79
2023/08/03 13:37:36;;;;;;;11.85;3.08;;;;;;;;;;5033988;28;20081;-80
2023/08/03 13:40:03;;;;;;;11.43;2.80;;;;;;;;;;5015229;28;20446;-80
2023/08/03 13:42:29;;;;;;;10.95;3.00;;;;;;;;;;5031424;28;20404;-80
2023/08/03 13:44:55;;;;;;;12.48;2.80;;;;;;;;;;5038167;28;20094;-78
2023/08/03 13:47:21;;;;;;;12.60;3.05;;;;;;;;;;5050977;28;20060;-82
2023/08/03 13:49:47;;;;;;;10.38;2.75;;;;;;;;;;5031486;28;20044;-79
2023/08/03 13:52:14;;;;;;;11.95;3.35;;;;;;;;;;5031275;28;20044;-81
2023/08/03 13:54:40;;;;;;;14.48;2.90;;;;;;;;;;5042745;28;20488;-83
2023/08/03 13:57:06;;;;;;;11.50;3.63;;;;;;;;;;5023611;28;20045;-81
2023/08/03 13:59:32;;;;;;;10.35;2.80;;;;;;;;;;5035650;28;20052;-79
2023/08/03 14:01:58;;;;;;;10.80;2.70;;;;;;;;;;5021631;28;20072;-79
2023/08/03 14:04:30;;;;;;;9.68;3.10;;;;;;;;;;5050771;28;20095;-83
2023/08/03 14:06:56;;;;;;;14.68;3.15;;;;;;;;;;5050214;28;20055;-79
2023/08/03 14:09:22;;;;;;;13.43;3.00;;;;;;;;;;5050921;28;20041;-81
2023/08/03 14:11:49;;;;;;;11.88;2.80;;;;;;;;;;5046034;28;20117;-82
2023/08/03 14:14:16;;;;;;;14.50;3.22;;;;;;;;;;5040093;28;20041;-77
2023/08/03 14:16:47;;;;;;;12.35;2.83;;;;;;;;;;5014127;28;20124;-79
2023/08/03 14:19:14;;;;;;;10.27;2.55;;;;;;;;;;5036125;28;20049;-79
2023/08/03 14:21:40;;;;;;;7.70;2.50;;;;;;;;;;5033841;28;20048;-83
2023/08/03 14:24:06;;;;;;;9.07;2.67;;;;;;;;;;5033951;28;20052;-78
2023/08/03 14:26:33;;;;;;;10.32;2.75;;;;;;;;;;5037486;28;20454;-78
2023/08/03 14:28:59;;;;;;;10.00;2.45;;;;;;;;;;5052466;28;20048;-77
2023/08/03 14:31:25;;;;;;;6.38;2.00;;;;;;;;;;5042767;28;20479;-82
2023/08/03 14:33:51;;;;;;;7.78;2.40;;;;;;;;;;5054600;28;20041;-79
2023/08/03 14:36:17;;;;;;;6.30;1.85;;;;;;;;;;5054579;28;20064;-79
2023/08/03 14:38:43;;;;;;;10.55;2.40;;;;;;;;;;5042253;28;20089;-81
2023/08/03 14:41:18;;;;;;;10.07;2.60;;;;;;;;;;5053052;28;20048;-77
2023/08/03 14:43:44;;;;;;;8.60;2.27;;;;;;;;;;5038250;28;20580;-78